Time;durP1;ratioP1;P1;durP2;ratioP2;P2;SDS_P1;SDS_P2;PMS_P1;PMS_P2;Temp;Humidity;BMP_temperature;BMP_pressure;BME280_temperature;BME280_humidity;BME280_pressure;Samples;Min_cycle;Max_cycle;Signal;HPM_P1;HPM_P2
2021/05/02 00:00:56;;;;;;;9.93;8.93;;;9.80;96.40;;;;;;2079556;28;20026;-68
2021/05/02 00:01:56;;;;;;;11.30;9.63;;;9.80;96.40;;;;;;2080400;28;20167;-67
2021/05/02 00:02:59;;;;;;;10.45;9.45;;;9.80;96.30;;;;;;2079336;28;20137;-68
2021/05/02 00:04:02;;;;;;;11.75;10.55;;;9.80;95.90;;;;;;2082685;28;20029;-67
2021/05/02 00:05:04;;;;;;;12.05;10.50;;;9.80;96.70;;;;;;2088046;28;20094;-67
2021/05/02 00:06:08;;;;;;;7.85;7.15;;;9.80;97.20;;;;;;2080686;28;20044;-67
2021/05/02 00:07:09;;;;;;;11.85;9.75;;;9.70;95.50;;;;;;2079902;28;20030;-67
2021/05/02 00:08:10;;;;;;;12.25;10.52;;;9.70;95.80;;;;;;2080589;28;20021;-67
2021/05/02 00:09:11;;;;;;;10.73;9.73;;;9.80;96.20;;;;;;2080013;28;20053;-67
2021/05/02 00:10:13;;;;;;;11.35;10.13;;;9.80;96.10;;;;;;2079163;28;20029;-68
2021/05/02 00:11:13;;;;;;;8.63;7.82;;;9.80;96.50;;;;;;2079107;28;20018;-67
2021/05/02 00:12:14;;;;;;;9.32;7.95;;;9.70;95.50;;;;;;2074655;28;20029;-67
2021/05/02 00:13:15;;;;;;;9.70;8.52;;;9.70;95.40;;;;;;2080036;28;20040;-67
2021/05/02 00:14:15;;;;;;;9.15;8.30;;;9.70;94.80;;;;;;2086781;28;20021;-67
2021/05/02 00:15:18;;;;;;;10.82;9.70;;;9.70;94.60;;;;;;2088078;28;20349;-67
2021/05/02 00:16:19;;;;;;;10.40;9.40;;;9.70;95.60;;;;;;2079898;28;20141;-67
2021/05/02 00:17:21;;;;;;;10.45;9.45;;;9.70;95.40;;;;;;2079666;28;20033;-68
2021/05/02 00:18:24;;;;;;;11.38;10.23;;;9.70;96.10;;;;;;2079951;28;20531;-68
2021/05/02 00:19:25;;;;;;;10.40;9.50;;;9.70;96.40;;;;;;2080089;28;20092;-68
2021/05/02 00:20:27;;;;;;;13.05;11.73;;;9.70;96.30;;;;;;2079946;28;20021;-68
2021/05/02 00:21:27;;;;;;;9.98;9.07;;;9.60;97.20;;;;;;2080142;28;20037;-68
2021/05/02 00:22:28;;;;;;;10.15;9.13;;;9.60;96.60;;;;;;2078967;28;20033;-68
2021/05/02 00:23:32;;;;;;;12.80;11.43;;;9.60;96.50;;;;;;2082448;28;20029;-67
2021/05/02 00:24:34;;;;;;;13.23;11.57;;;9.60;97.00;;;;;;2079169;28;20044;-67
2021/05/02 00:25:35;;;;;;;13.32;10.75;;;9.60;97.50;;;;;;2082761;28;20032;-67
2021/05/02 00:26:36;;;;;;;12.48;10.82;;;9.60;97.40;;;;;;2075444;28;20100;-67
2021/05/02 00:27:37;;;;;;;12.68;11.43;;;9.60;97.30;;;;;;2082918;28;20041;-67
2021/05/02 00:28:49;;;;;;;12.93;10.82;;;9.60;97.90;;;;;;2079848;28;20021;-67
2021/05/02 00:29:49;;;;;;;12.65;11.30;;;9.60;98.00;;;;;;2080067;28;20105;-68
2021/05/02 00:30:50;;;;;;;10.68;9.63;;;9.50;97.80;;;;;;2079495;28;20037;-67
2021/05/02 00:31:51;;;;;;;11.45;10.35;;;9.50;97.50;;;;;;2085186;28;20009;-67
2021/05/02 00:32:54;;;;;;;10.00;9.00;;;9.50;97.70;;;;;;2087797;28;20108;-67
2021/05/02 00:33:55;;;;;;;13.02;11.77;;;9.50;96.90;;;;;;2088163;28;20032;-67
2021/05/02 00:34:57;;;;;;;12.98;11.75;;;9.50;98.30;;;;;;2079894;28;20452;-67
2021/05/02 00:35:59;;;;;;;13.90;12.18;;;9.50;98.90;;;;;;2076004;28;20461;-67
2021/05/02 00:37:02;;;;;;;13.80;12.27;;;9.50;99.50;;;;;;2085247;28;20476;-68
2021/05/02 00:38:02;;;;;;;14.90;13.50;;;9.50;99.50;;;;;;2080156;28;20017;-68
2021/05/02 00:39:04;;;;;;;12.30;11.13;;;9.50;99.90;;;;;;2079767;28;20033;-67
2021/05/02 00:40:19;;;;;;;11.90;10.68;;;9.40;99.50;;;;;;2076288;28;20072;-67
2021/05/02 00:41:32;;;;;;;13.70;11.63;;;9.40;99.10;;;;;;2083265;28;20403;-67
2021/05/02 00:42:35;;;;;;;11.05;9.93;;;9.40;99.50;;;;;;2087345;28;20123;-68
2021/05/02 00:43:56;;;;;;;11.13;10.02;;;9.40;98.20;;;;;;2088013;28;20020;-68
2021/05/02 00:45:08;;;;;;;13.05;11.75;;;9.40;97.80;;;;;;2079255;28;20563;-68
2021/05/02 00:46:18;;;;;;;14.20;12.10;;;9.40;99.30;;;;;;2082495;28;20571;-67
2021/05/02 00:47:28;;;;;;;14.30;11.95;;;9.30;99.90;;;;;;2088220;28;20099;-68
2021/05/02 00:48:36;;;;;;;14.38;12.88;;;9.30;99.60;;;;;;2082845;28;20484;-67
2021/05/02 00:50:05;;;;;;;14.38;12.98;;;9.30;99.90;;;;;;2079806;28;20500;-68
2021/05/02 00:51:07;;;;;;;14.65;12.02;;;9.30;99.90;;;;;;2079830;28;20028;-67
2021/05/02 00:52:17;;;;;;;15.30;13.20;;;9.30;99.90;;;;;;2079708;28;20448;-67
2021/05/02 00:53:36;;;;;;;13.00;11.77;;;9.30;99.90;;;;;;2075187;28;20072;-67
2021/05/02 00:54:46;;;;;;;13.68;12.38;;;9.30;99.90;;;;;;2085119;28;20583;-67
2021/05/02 00:55:54;;;;;;;14.50;13.00;;;9.30;99.90;;;;;;2082174;28;20543;-67
2021/05/02 00:57:00;;;;;;;13.25;11.70;;;9.20;99.90;;;;;;2087347;28;20043;-67
2021/05/02 00:58:03;;;;;;;13.40;12.00;;;9.20;99.90;;;;;;2088014;28;20057;-67
2021/05/02 00:59:18;;;;;;;14.25;12.88;;;9.20;99.90;;;;;;2087841;28;20041;-67
2021/05/02 01:00:19;;;;;;;15.00;12.45;;;9.30;99.90;;;;;;2085127;28;20065;-68
2021/05/02 01:01:22;;;;;;;12.13;9.95;;;9.30;99.90;;;;;;2085584;28;20024;-67
2021/05/02 01:02:28;;;;;;;11.77;10.68;;;9.30;99.90;;;;;;2082298;28;20540;-68
2021/05/02 01:03:33;;;;;;;12.23;10.98;;;9.30;99.90;;;;;;2087740;28;20029;-68
2021/05/02 01:04:34;;;;;;;13.15;11.85;;;9.30;99.90;;;;;;2087939;28;20029;-68
2021/05/02 01:05:35;;;;;;;11.30;8.80;;;9.30;99.90;;;;;;2083749;28;20029;-68
2021/05/02 01:06:39;;;;;;;10.35;8.85;;;9.20;99.50;;;;;;2079729;28;20025;-68
2021/05/02 01:07:42;;;;;;;11.95;9.18;;;9.30;99.20;;;;;;2079282;28;20083;-67
2021/05/02 01:08:43;;;;;;;12.48;10.85;;;9.20;98.50;;;;;;2081768;28;20426;-68
2021/05/02 01:09:43;;;;;;;12.48;11.25;;;9.30;99.20;;;;;;2083031;28;20026;-68
2021/05/02 01:10:45;;;;;;;11.15;10.15;;;9.20;99.70;;;;;;2079878;28;20017;-68
2021/05/02 01:11:47;;;;;;;11.00;9.88;;;9.20;99.50;;;;;;2079688;28;20025;-67
2021/05/02 01:12:51;;;;;;;11.18;10.18;;;9.20;99.70;;;;;;2078830;28;20033;-67
2021/05/02 01:13:57;;;;;;;9.93;8.80;;;9.20;99.40;;;;;;2075667;28;21225;-68
2021/05/02 01:14:58;;;;;;;12.98;11.77;;;9.20;98.60;;;;;;2079871;28;20478;-68
2021/05/02 01:16:02;;;;;;;13.02;11.73;;;9.20;99.40;;;;;;2081905;28;20025;-67
2021/05/02 01:17:06;;;;;;;12.80;11.60;;;9.20;99.60;;;;;;2079625;28;20100;-67
2021/05/02 01:18:08;;;;;;;12.82;10.98;;;9.10;99.70;;;;;;2079479;28;20506;-67
2021/05/02 01:19:11;;;;;;;12.95;11.13;;;9.10;99.60;;;;;;2079660;28;20030;-67
2021/05/02 01:20:14;;;;;;;12.80;11.50;;;9.10;99.50;;;;;;2082738;28;20457;-67
2021/05/02 01:21:17;;;;;;;11.85;10.65;;;9.10;99.60;;;;;;2087955;28;20021;-68
2021/05/02 01:22:19;;;;;;;12.70;11.40;;;9.10;99.60;;;;;;2087168;28;20021;-67
2021/05/02 01:23:25;;;;;;;13.52;12.15;;;9.10;99.90;;;;;;2087812;28;20473;-67
2021/05/02 01:24:27;;;;;;;14.30;12.88;;;9.10;99.90;;;;;;2085389;28;20037;-68
2021/05/02 01:25:28;;;;;;;16.13;12.50;;;9.10;99.90;;;;;;2079417;28;20088;-67
2021/05/02 01:26:29;;;;;;;12.25;11.05;;;9.00;99.80;;;;;;2079497;28;20025;-67
2021/05/02 01:27:31;;;;;;;14.98;13.35;;;9.00;99.80;;;;;;2079731;28;20057;-67
2021/05/02 01:28:38;;;;;;;14.65;13.13;;;9.00;99.90;;;;;;2084026;28;20376;-68
2021/05/02 01:29:39;;;;;;;11.13;10.02;;;9.00;99.90;;;;;;2079673;28;20044;-67
2021/05/02 01:30:39;;;;;;;14.05;12.75;;;9.00;99.90;;;;;;2079698;28;20488;-67
2021/05/02 01:31:42;;;;;;;15.13;13.52;;;9.00;99.90;;;;;;2079094;28;20030;-67
2021/05/02 01:32:43;;;;;;;14.25;12.85;;;9.00;99.90;;;;;;2078297;28;20532;-68
2021/05/02 01:33:45;;;;;;;16.67;14.80;;;9.00;99.90;;;;;;2077310;28;20033;-68
2021/05/02 01:34:47;;;;;;;15.95;13.45;;;9.00;99.90;;;;;;2077816;28;20424;-67
2021/05/02 01:35:48;;;;;;;17.95;14.45;;;8.90;99.90;;;;;;2078273;28;20028;-67
2021/05/02 01:36:48;;;;;;;14.43;12.77;;;8.90;99.90;;;;;;2077922;28;20451;-67
2021/05/02 01:37:51;;;;;;;12.60;11.43;;;8.90;99.90;;;;;;2080624;28;20064;-67
2021/05/02 01:38:54;;;;;;;15.10;12.63;;;8.90;99.90;;;;;;2079499;28;20388;-67
2021/05/02 01:39:54;;;;;;;11.57;10.43;;;8.90;99.90;;;;;;2075466;28;20014;-68
2021/05/02 01:40:55;;;;;;;15.98;12.27;;;8.90;99.90;;;;;;2076706;28;20113;-67
2021/05/02 01:41:56;;;;;;;13.07;11.75;;;8.90;99.90;;;;;;2087439;28;20024;-68
2021/05/02 01:42:57;;;;;;;13.10;11.80;;;8.90;99.90;;;;;;2079632;28;20057;-67
2021/05/02 01:43:57;;;;;;;19.83;13.05;;;8.90;99.90;;;;;;2078608;28;20024;-67
2021/05/02 01:44:58;;;;;;;14.75;13.25;;;8.90;99.90;;;;;;2079271;28;20105;-67
2021/05/02 01:45:59;;;;;;;13.45;12.10;;;8.90;99.90;;;;;;2080550;28;20069;-67
2021/05/02 01:47:09;;;;;;;12.63;11.43;;;8.90;99.90;;;;;;2087623;28;20029;-68
2021/05/02 01:48:13;;;;;;;15.20;13.60;;;8.90;99.90;;;;;;2083065;28;20107;-67
2021/05/02 01:49:17;;;;;;;11.65;10.55;;;8.90;99.90;;;;;;2080719;28;20014;-67
2021/05/02 01:50:18;;;;;;;14.18;12.68;;;8.90;99.80;;;;;;2087856;28;20033;-67
2021/05/02 01:51:20;;;;;;;12.70;11.45;;;8.90;99.90;;;;;;2081828;28;20519;-68
2021/05/02 01:52:21;;;;;;;15.38;12.68;;;8.90;99.80;;;;;;2078785;28;20025;-68
2021/05/02 01:53:23;;;;;;;12.25;10.65;;;8.80;99.60;;;;;;2079216;28;20060;-67
2021/05/02 01:54:24;;;;;;;12.95;11.50;;;8.80;99.50;;;;;;2078966;28;20453;-68
2021/05/02 01:55:24;;;;;;;14.68;13.15;;;8.80;99.40;;;;;;2079294;28;20029;-68
2021/05/02 01:56:25;;;;;;;13.40;12.07;;;8.80;99.90;;;;;;2079593;28;20592;-67
2021/05/02 01:57:29;;;;;;;15.00;13.43;;;8.80;99.90;;;;;;2079451;28;20060;-67
2021/05/02 01:58:31;;;;;;;13.90;12.50;;;8.80;99.90;;;;;;2080036;28;20477;-67
2021/05/02 01:59:33;;;;;;;16.10;13.43;;;8.70;99.90;;;;;;2084972;28;20033;-67
2021/05/02 02:00:50;;;;;;;12.00;10.80;;;8.70;99.90;;;;;;2088002;28;20025;-67
2021/05/02 02:01:51;;;;;;;13.07;11.77;;;8.70;99.90;;;;;;2081998;28;20484;-67
2021/05/02 02:02:53;;;;;;;13.45;12.15;;;8.70;99.90;;;;;;2079926;28;20096;-67
2021/05/02 02:03:55;;;;;;;12.98;10.88;;;8.70;99.90;;;;;;2080400;28;20029;-67
2021/05/02 02:04:57;;;;;;;13.40;12.00;;;8.70;99.90;;;;;;2080021;28;20112;-68
2021/05/02 02:05:58;;;;;;;13.93;11.55;;;8.70;99.90;;;;;;2080114;28;20465;-67
2021/05/02 02:06:59;;;;;;;15.00;11.30;;;8.70;99.90;;;;;;2079973;28;20437;-67
2021/05/02 02:08:01;;;;;;;10.55;9.48;;;8.70;99.90;;;;;;2075324;28;20059;-67
2021/05/02 02:09:05;;;;;;;11.85;10.75;;;8.70;99.80;;;;;;2085438;28;20029;-67
2021/05/02 02:10:06;;;;;;;14.30;12.90;;;8.70;99.70;;;;;;2087872;28;20039;-68
2021/05/02 02:11:07;;;;;;;13.27;11.98;;;8.70;99.90;;;;;;2082160;28;20076;-67
2021/05/02 02:12:08;;;;;;;14.73;13.20;;;8.70;99.90;;;;;;2082022;28;20021;-67
2021/05/02 02:13:14;;;;;;;13.70;12.40;;;8.60;99.90;;;;;;2082116;28;20018;-68
2021/05/02 02:14:14;;;;;;;13.15;11.85;;;8.60;99.90;;;;;;2081824;28;20022;-67
2021/05/02 02:15:15;;;;;;;14.18;12.52;;;8.60;99.90;;;;;;2082601;28;20121;-68
2021/05/02 02:16:16;;;;;;;14.63;13.10;;;8.60;99.90;;;;;;2082316;28;20026;-67
2021/05/02 02:17:17;;;;;;;12.52;11.32;;;8.70;99.90;;;;;;2082228;28;20388;-68
2021/05/02 02:18:18;;;;;;;13.45;12.05;;;8.60;99.90;;;;;;2082253;28;20021;-67
2021/05/02 02:19:19;;;;;;;13.23;11.85;;;8.60;99.90;;;;;;2082113;28;20036;-67
2021/05/02 02:20:22;;;;;;;13.32;11.95;;;8.60;99.90;;;;;;2082053;28;20492;-67
2021/05/02 02:21:24;;;;;;;13.00;11.20;;;8.70;99.90;;;;;;2073903;28;20033;-67
2021/05/02 02:22:26;;;;;;;11.57;10.38;;;8.70;99.90;;;;;;2079711;28;20022;-68
2021/05/02 02:23:31;;;;;;;11.38;10.07;;;8.70;99.90;;;;;;2082149;28;20025;-67
2021/05/02 02:24:52;;;;;;;10.15;9.25;;;8.60;99.90;;;;;;2081721;28;20034;-68
2021/05/02 02:25:54;;;;;;;11.70;10.60;;;8.60;99.90;;;;;;2084795;28;20021;-67
2021/05/02 02:26:58;;;;;;;13.02;11.70;;;8.60;99.90;;;;;;2082059;28;20028;-67
2021/05/02 02:28:02;;;;;;;12.15;11.02;;;8.60;99.90;;;;;;2081167;28;20030;-67
2021/05/02 02:29:08;;;;;;;12.00;10.77;;;8.60;99.90;;;;;;2080970;28;20453;-67
2021/05/02 02:30:12;;;;;;;12.43;10.65;;;8.60;99.90;;;;;;2076037;28;20121;-67
2021/05/02 02:31:13;;;;;;;10.98;9.80;;;8.60;99.90;;;;;;2081115;28;20492;-67
2021/05/02 02:32:16;;;;;;;15.35;12.30;;;8.60;99.90;;;;;;2088396;28;20029;-67
2021/05/02 02:33:18;;;;;;;14.43;12.38;;;8.60;99.90;;;;;;2088605;28;20022;-67
2021/05/02 02:34:19;;;;;;;11.85;10.65;;;8.60;99.90;;;;;;2085420;28;20030;-67
2021/05/02 02:35:21;;;;;;;11.93;10.73;;;8.60;99.90;;;;;;2081958;28;20044;-67
2021/05/02 02:36:23;;;;;;;9.98;8.98;;;8.50;99.90;;;;;;2080868;28;20394;-67
2021/05/02 02:37:26;;;;;;;10.27;9.20;;;8.60;99.90;;;;;;2081358;28;20562;-67
2021/05/02 02:38:28;;;;;;;10.82;9.43;;;8.50;99.90;;;;;;2073802;28;20048;-67
2021/05/02 02:39:30;;;;;;;13.52;11.38;;;8.50;99.90;;;;;;2083999;28;20106;-67
2021/05/02 02:40:36;;;;;;;14.70;12.30;;;8.50;99.90;;;;;;2087683;28;20028;-67
2021/05/02 02:41:42;;;;;;;12.43;10.73;;;8.50;99.90;;;;;;2084255;28;20515;-67
2021/05/02 02:42:46;;;;;;;14.68;11.63;;;8.50;99.90;;;;;;2082646;28;20496;-68
2021/05/02 02:43:58;;;;;;;13.48;12.15;;;8.50;99.90;;;;;;2090517;28;20041;-67
2021/05/02 02:45:03;;;;;;;13.15;11.15;;;8.50;99.90;;;;;;2089848;28;20465;-67
2021/05/02 02:46:04;;;;;;;12.35;10.43;;;8.50;99.90;;;;;;2082516;28;20476;-67
2021/05/02 02:47:08;;;;;;;10.27;9.27;;;8.50;99.90;;;;;;2081401;28;20512;-67
2021/05/02 02:48:09;;;;;;;10.82;9.73;;;8.50;99.90;;;;;;2081943;28;20021;-67
2021/05/02 02:49:12;;;;;;;11.50;10.43;;;8.50;99.90;;;;;;2081875;28;20018;-67
2021/05/02 02:50:18;;;;;;;12.90;11.60;;;8.50;99.90;;;;;;2081890;28;20542;-68
2021/05/02 02:51:20;;;;;;;14.05;11.93;;;8.50;99.90;;;;;;2084743;28;20071;-67
2021/05/02 02:52:25;;;;;;;11.35;10.23;;;8.50;99.90;;;;;;2081411;28;20029;-68
2021/05/02 02:53:29;;;;;;;15.23;11.88;;;8.50;99.90;;;;;;2076599;28;20022;-67
2021/05/02 02:54:31;;;;;;;13.38;11.85;;;8.50;99.90;;;;;;2080817;28;20036;-67
2021/05/02 02:55:36;;;;;;;12.45;10.18;;;8.50;99.90;;;;;;2081952;28;20029;-67
2021/05/02 02:56:41;;;;;;;12.95;11.65;;;8.50;99.90;;;;;;2087627;28;20037;-67
2021/05/02 02:58:06;;;;;;;13.52;11.18;;;8.50;99.90;;;;;;2085701;28;20029;-67
2021/05/02 02:59:19;;;;;;;12.73;11.43;;;8.50;99.90;;;;;;2076272;28;20108;-67
2021/05/02 03:00:22;;;;;;;12.70;11.40;;;8.50;99.90;;;;;;2081886;28;20014;-67
2021/05/02 03:01:26;;;;;;;11.98;10.48;;;8.50;99.90;;;;;;2081892;28;20057;-67
2021/05/02 03:02:30;;;;;;;13.15;10.80;;;8.50;99.90;;;;;;2083123;28;20067;-68
2021/05/02 03:03:32;;;;;;;11.35;10.25;;;8.50;99.90;;;;;;2088981;28;20477;-69
2021/05/02 03:04:34;;;;;;;10.32;8.95;;;8.50;99.90;;;;;;2089149;28;20488;-68
2021/05/02 03:05:37;;;;;;;13.13;10.40;;;8.50;99.90;;;;;;2079830;28;20060;-67
2021/05/02 03:06:38;;;;;;;12.90;11.52;;;8.50;99.90;;;;;;2080250;28;20040;-67
2021/05/02 03:07:40;;;;;;;13.73;10.90;;;8.50;99.90;;;;;;2077922;28;20049;-67
2021/05/02 03:08:41;;;;;;;11.30;10.10;;;8.50;99.90;;;;;;2081131;28;20022;-68
2021/05/02 03:09:47;;;;;;;12.30;10.73;;;8.50;99.90;;;;;;2080794;28;20025;-67
2021/05/02 03:10:50;;;;;;;10.25;8.98;;;8.50;99.90;;;;;;2080996;28;20022;-67
2021/05/02 03:11:51;;;;;;;12.10;10.60;;;8.50;99.90;;;;;;2080580;28;20021;-68
2021/05/02 03:12:53;;;;;;;11.40;10.23;;;8.50;99.90;;;;;;2088680;28;20036;-67
2021/05/02 03:13:54;;;;;;;10.50;9.45;;;8.50;99.90;;;;;;2088849;28;20060;-68
2021/05/02 03:14:56;;;;;;;12.30;10.32;;;8.50;99.90;;;;;;2089201;28;20025;-67
2021/05/02 03:16:00;;;;;;;9.95;8.63;;;8.50;99.90;;;;;;2088666;28;20021;-67
2021/05/02 03:17:02;;;;;;;13.13;9.30;;;8.50;99.90;;;;;;2086176;28;20472;-67
2021/05/02 03:18:07;;;;;;;9.48;8.57;;;8.50;99.90;;;;;;2082195;28;20025;-67
2021/05/02 03:19:21;;;;;;;10.52;9.52;;;8.50;99.90;;;;;;2081531;28;20021;-67
2021/05/02 03:20:26;;;;;;;8.63;7.72;;;8.50;99.90;;;;;;2081168;28;20049;-68
2021/05/02 03:21:37;;;;;;;10.48;8.75;;;8.50;99.90;;;;;;2083930;28;20025;-68
2021/05/02 03:22:59;;;;;;;11.65;8.95;;;8.50;99.90;;;;;;2085914;28;20459;-68
2021/05/02 03:24:03;;;;;;;12.80;8.20;;;8.50;99.90;;;;;;2084636;28;20496;-68
2021/05/02 03:25:09;;;;;;;10.27;8.10;;;8.50;99.90;;;;;;2080573;28;20029;-68
2021/05/02 03:26:12;;;;;;;8.93;7.72;;;8.50;99.90;;;;;;2080448;28;20022;-68
2021/05/02 03:27:19;;;;;;;10.90;8.40;;;8.50;99.90;;;;;;2080526;28;20492;-67
2021/05/02 03:28:33;;;;;;;10.35;8.48;;;8.50;99.90;;;;;;2079580;28;20030;-67
2021/05/02 03:29:38;;;;;;;12.02;8.10;;;8.50;99.90;;;;;;2072281;28;20157;-67
2021/05/02 03:30:44;;;;;;;12.10;8.90;;;8.40;99.90;;;;;;2079556;28;20024;-67
2021/05/02 03:31:50;;;;;;;11.38;8.55;;;8.50;99.90;;;;;;2079424;28;20132;-68
2021/05/02 03:32:54;;;;;;;8.93;8.02;;;8.40;99.90;;;;;;2078807;28;20444;-68
2021/05/02 03:33:58;;;;;;;6.80;6.10;;;8.40;99.90;;;;;;2077896;28;20029;-68
2021/05/02 03:34:59;;;;;;;10.57;8.13;;;8.40;99.90;;;;;;2084635;28;20120;-67
2021/05/02 03:36:05;;;;;;;9.88;8.20;;;8.40;99.90;;;;;;2080402;28;20156;-68
2021/05/02 03:37:11;;;;;;;14.80;7.93;;;8.40;99.90;;;;;;2084812;28;20025;-67
2021/05/02 03:38:28;;;;;;;8.95;7.22;;;8.40;99.90;;;;;;2080258;28;20025;-67
2021/05/02 03:39:29;;;;;;;9.50;7.90;;;8.40;99.90;;;;;;2080612;28;20501;-67
2021/05/02 03:40:29;;;;;;;10.52;7.32;;;8.40;99.90;;;;;;2080654;28;20017;-68
2021/05/02 03:41:33;;;;;;;12.65;7.88;;;8.40;99.90;;;;;;2079668;28;20052;-68
2021/05/02 03:42:34;;;;;;;8.52;6.80;;;8.40;99.90;;;;;;2079322;28;20076;-68
2021/05/02 03:43:37;;;;;;;9.82;7.20;;;8.30;99.90;;;;;;2074942;28;20072;-67
2021/05/02 03:44:38;;;;;;;11.52;7.65;;;8.30;99.90;;;;;;2082968;28;20100;-67
2021/05/02 03:45:38;;;;;;;9.25;7.35;;;8.30;99.90;;;;;;2086482;28;20498;-67
2021/05/02 03:46:39;;;;;;;8.15;7.05;;;8.30;99.90;;;;;;2080209;28;20105;-67
2021/05/02 03:47:39;;;;;;;8.27;6.75;;;8.30;99.90;;;;;;2073211;28;20033;-68
2021/05/02 03:48:40;;;;;;;8.23;7.22;;;8.30;99.90;;;;;;2079659;28;20394;-67
2021/05/02 03:49:40;;;;;;;9.52;7.47;;;8.30;99.90;;;;;;2080080;28;20026;-67
2021/05/02 03:50:41;;;;;;;10.23;7.53;;;8.30;99.90;;;;;;2080609;28;20021;-67
2021/05/02 03:51:42;;;;;;;9.60;7.43;;;8.30;99.90;;;;;;2080057;28;20022;-67
2021/05/02 03:52:42;;;;;;;11.18;7.47;;;8.30;99.90;;;;;;2082993;28;20408;-67
2021/05/02 03:53:43;;;;;;;9.07;7.20;;;8.30;99.90;;;;;;2088205;28;20033;-67
2021/05/02 03:54:44;;;;;;;9.52;7.60;;;8.30;99.90;;;;;;2087832;28;20021;-67
2021/05/02 03:55:46;;;;;;;8.45;7.13;;;8.30;99.90;;;;;;2081611;28;20071;-67
2021/05/02 03:56:47;;;;;;;8.93;7.03;;;8.30;99.90;;;;;;2088493;28;20033;-68
2021/05/02 03:57:47;;;;;;;10.48;7.75;;;8.30;99.90;;;;;;2088293;28;20352;-67
2021/05/02 03:58:48;;;;;;;12.77;7.40;;;8.30;99.90;;;;;;2088763;28;20112;-67
2021/05/02 03:59:49;;;;;;;8.10;6.93;;;8.30;99.90;;;;;;2088321;28;20130;-67
2021/05/02 04:00:49;;;;;;;10.57;8.18;;;8.30;99.90;;;;;;2086607;28;20029;-67
2021/05/02 04:01:51;;;;;;;13.73;8.52;;;8.30;99.90;;;;;;2080007;28;20123;-67
2021/05/02 04:02:51;;;;;;;11.98;8.10;;;8.40;99.90;;;;;;2079668;28;20488;-68
2021/05/02 04:03:52;;;;;;;13.48;8.90;;;8.40;99.90;;;;;;2079885;28;20464;-67
2021/05/02 04:04:52;;;;;;;10.55;8.77;;;8.40;99.90;;;;;;2079962;28;20059;-67
2021/05/02 04:05:53;;;;;;;11.10;7.97;;;8.40;99.90;;;;;;2084566;28;20021;-69
2021/05/02 04:07:01;;;;;;;11.73;9.35;;;8.40;99.90;;;;;;2085424;28;20108;-67
2021/05/02 04:08:02;;;;;;;9.88;8.45;;;8.40;99.90;;;;;;2088145;28;20126;-68
2021/05/02 04:09:10;;;;;;;18.13;9.93;;;8.40;99.90;;;;;;2088687;28;20020;-67
2021/05/02 04:10:11;;;;;;;12.45;10.15;;;8.40;99.90;;;;;;2080380;28;20113;-67
2021/05/02 04:11:11;;;;;;;13.07;10.38;;;8.30;99.90;;;;;;2080027;28;20032;-67
2021/05/02 04:12:13;;;;;;;14.73;9.77;;;8.40;99.90;;;;;;2082885;28;20048;-67
2021/05/02 04:13:13;;;;;;;13.43;10.18;;;8.40;99.90;;;;;;2088393;28;20020;-68
2021/05/02 04:14:15;;;;;;;16.13;11.15;;;8.40;99.90;;;;;;2087355;28;20021;-67
2021/05/02 04:15:16;;;;;;;15.32;11.45;;;8.40;99.90;;;;;;2087712;28;20099;-67
2021/05/02 04:16:17;;;;;;;12.35;11.00;;;8.40;99.90;;;;;;2079454;28;20040;-67
2021/05/02 04:17:18;;;;;;;15.98;12.13;;;8.50;99.90;;;;;;2080066;28;20112;-67
2021/05/02 04:18:18;;;;;;;19.92;12.18;;;8.40;99.90;;;;;;2079956;28;20354;-67
2021/05/02 04:19:19;;;;;;;12.48;11.13;;;8.40;99.90;;;;;;2080154;28;20021;-67
2021/05/02 04:20:20;;;;;;;16.50;11.88;;;8.50;99.90;;;;;;2079439;28;20029;-67
2021/05/02 04:21:21;;;;;;;14.13;11.50;;;8.50;99.90;;;;;;2071911;28;20026;-67
2021/05/02 04:22:22;;;;;;;15.48;12.00;;;8.50;99.90;;;;;;2086380;28;20037;-67
2021/05/02 04:23:23;;;;;;;17.48;13.30;;;8.50;99.90;;;;;;2088496;28;20025;-67
2021/05/02 04:24:24;;;;;;;13.88;12.40;;;8.50;99.90;;;;;;2087860;28;20060;-68
2021/05/02 04:25:25;;;;;;;15.27;12.40;;;8.50;99.90;;;;;;2086416;28;20362;-68
2021/05/02 04:26:25;;;;;;;16.40;13.13;;;8.50;99.90;;;;;;2079766;28;20036;-67
2021/05/02 04:27:26;;;;;;;15.52;13.23;;;8.50;99.90;;;;;;2079384;28;20030;-67
2021/05/02 04:28:27;;;;;;;16.75;13.18;;;8.50;99.90;;;;;;2083766;28;20042;-67
2021/05/02 04:29:29;;;;;;;13.80;12.38;;;8.50;99.90;;;;;;2082507;28;20043;-68
2021/05/02 04:30:29;;;;;;;15.68;12.45;;;8.50;99.90;;;;;;2078836;28;20037;-67
2021/05/02 04:31:30;;;;;;;15.35;13.77;;;8.50;99.90;;;;;;2073083;28;20046;-67
2021/05/02 04:32:31;;;;;;;15.50;13.88;;;8.50;99.90;;;;;;2070255;28;20034;-67
2021/05/02 04:33:31;;;;;;;18.13;13.60;;;8.60;99.90;;;;;;2076975;28;20041;-67
2021/05/02 04:34:32;;;;;;;15.88;13.10;;;8.60;99.90;;;;;;2071886;28;20060;-67
2021/05/02 04:35:32;;;;;;;16.88;13.63;;;8.50;99.90;;;;;;2074907;28;20028;-67
2021/05/02 04:36:33;;;;;;;15.32;12.85;;;8.50;99.90;;;;;;2079089;28;20041;-67
2021/05/02 04:37:34;;;;;;;15.20;12.57;;;8.50;99.90;;;;;;2075920;28;20521;-67
2021/05/02 04:38:34;;;;;;;19.38;12.35;;;8.50;99.90;;;;;;2079022;28;20396;-67
2021/05/02 04:39:35;;;;;;;19.40;12.77;;;8.50;99.90;;;;;;2072942;28;20036;-67
2021/05/02 04:40:35;;;;;;;16.58;13.32;;;8.50;99.90;;;;;;2079168;28;20067;-67
2021/05/02 04:41:36;;;;;;;15.35;12.02;;;8.50;99.90;;;;;;2076561;28;20447;-67
2021/05/02 04:42:37;;;;;;;15.90;12.25;;;8.50;99.90;;;;;;2079178;28;20037;-68
2021/05/02 04:43:37;;;;;;;15.68;12.43;;;8.50;99.90;;;;;;2078852;28;20025;-67
2021/05/02 04:44:38;;;;;;;14.48;12.95;;;8.50;99.90;;;;;;2082785;28;20146;-67
2021/05/02 04:45:39;;;;;;;16.35;13.57;;;8.60;99.90;;;;;;2084576;28;20018;-67
2021/05/02 04:46:40;;;;;;;14.88;12.05;;;8.60;99.90;;;;;;2086649;28;20104;-67
2021/05/02 04:47:41;;;;;;;15.10;12.07;;;8.60;99.90;;;;;;2084984;28;20078;-67
2021/05/02 04:48:42;;;;;;;19.92;13.07;;;8.60;99.90;;;;;;2080068;28;20025;-67
2021/05/02 04:49:43;;;;;;;16.48;12.30;;;8.60;99.90;;;;;;2079411;28;20025;-67
2021/05/02 04:50:44;;;;;;;15.77;12.70;;;8.60;99.90;;;;;;2079033;28;20022;-67
2021/05/02 04:51:44;;;;;;;18.98;12.40;;;8.60;99.90;;;;;;2078719;28;20143;-67
2021/05/02 04:52:45;;;;;;;15.68;11.95;;;8.60;99.90;;;;;;2082714;28;20029;-67
2021/05/02 04:53:46;;;;;;;13.82;12.35;;;8.60;99.90;;;;;;2087979;28;20029;-67
2021/05/02 04:54:47;;;;;;;12.23;10.82;;;8.60;99.90;;;;;;2088047;28;20032;-67
2021/05/02 04:55:47;;;;;;;15.75;10.93;;;8.60;99.90;;;;;;2080026;28;20033;-67
2021/05/02 04:56:48;;;;;;;13.75;12.02;;;8.60;99.90;;;;;;2079462;28;20033;-67
2021/05/02 04:57:49;;;;;;;13.10;10.85;;;8.60;99.90;;;;;;2079552;28;20025;-67
2021/05/02 04:58:49;;;;;;;13.20;10.50;;;8.60;99.90;;;;;;2079605;28;20033;-67
2021/05/02 04:59:50;;;;;;;13.98;11.30;;;8.60;99.90;;;;;;2079851;28;20515;-67
2021/05/02 05:00:50;;;;;;;12.27;11.07;;;8.60;99.90;;;;;;2082728;28;20074;-67
2021/05/02 05:01:51;;;;;;;12.23;10.95;;;8.70;99.90;;;;;;2078513;28;20040;-67
2021/05/02 05:02:53;;;;;;;11.73;9.85;;;8.60;99.90;;;;;;2078447;28;20094;-67
2021/05/02 05:03:55;;;;;;;11.70;10.48;;;8.70;99.90;;;;;;2081127;28;20026;-67
2021/05/02 05:04:55;;;;;;;16.00;10.68;;;8.70;99.90;;;;;;2085390;28;20025;-67
2021/05/02 05:05:56;;;;;;;12.88;10.00;;;8.70;99.90;;;;;;2080051;28;20223;-67
2021/05/02 05:06:57;;;;;;;12.15;10.90;;;8.60;99.90;;;;;;2079442;28;20091;-67
2021/05/02 05:07:57;;;;;;;13.38;10.55;;;8.70;99.90;;;;;;2079808;28;20022;-67
2021/05/02 05:08:58;;;;;;;11.40;9.77;;;8.70;99.90;;;;;;2079612;28;20491;-68
2021/05/02 05:09:58;;;;;;;14.68;9.77;;;8.70;99.90;;;;;;2079391;28;20026;-67
2021/05/02 05:10:59;;;;;;;14.43;9.63;;;8.60;99.90;;;;;;2085270;28;20021;-68
2021/05/02 05:12:00;;;;;;;11.68;9.38;;;8.70;99.90;;;;;;2083604;28;20029;-68
2021/05/02 05:13:01;;;;;;;12.95;9.65;;;8.70;99.90;;;;;;2071184;28;20092;-67
2021/05/02 05:14:02;;;;;;;14.52;8.95;;;8.70;99.90;;;;;;2076579;28;20025;-67
2021/05/02 05:15:05;;;;;;;12.35;9.68;;;8.70;99.90;;;;;;2078929;28;20416;-67
2021/05/02 05:16:05;;;;;;;11.20;10.10;;;8.60;99.90;;;;;;2079179;28;20022;-67
2021/05/02 05:17:06;;;;;;;11.63;9.32;;;8.60;99.90;;;;;;2082985;28;20117;-67
2021/05/02 05:18:06;;;;;;;11.75;9.50;;;8.60;99.90;;;;;;2087691;28;20033;-67
2021/05/02 05:19:07;;;;;;;11.98;9.50;;;8.60;99.90;;;;;;2087944;28;20052;-67
2021/05/02 05:20:08;;;;;;;12.93;10.10;;;8.70;99.90;;;;;;2087872;28;20017;-67
2021/05/02 05:21:09;;;;;;;12.60;9.30;;;8.60;99.90;;;;;;2080537;28;20025;-67
2021/05/02 05:22:09;;;;;;;12.13;9.40;;;8.70;99.90;;;;;;2078874;28;20476;-67
2021/05/02 05:23:10;;;;;;;12.60;9.15;;;8.70;99.90;;;;;;2079502;28;20025;-67
2021/05/02 05:24:10;;;;;;;12.15;9.00;;;8.70;99.90;;;;;;2079811;28;20053;-67
2021/05/02 05:25:12;;;;;;;10.85;9.40;;;8.70;99.90;;;;;;2079358;28;20037;-67